sensor_id;sensor_type;location;lat;lon;timestamp;pressure;altitude;pressure_sealevel;temperature;humidity
55044;BME280;54902;50.420;18.854;2023-02-12T00:00:05;102638.22;;;4.91;82.98
55044;BME280;54902;50.420;18.854;2023-02-12T00:00:38;102618.40;;;4.91;82.98
55044;BME280;54902;50.420;18.854;2023-02-12T00:01:11;102625.55;;;4.92;82.97
55044;BME280;54902;50.420;18.854;2023-02-12T00:01:42;102625.55;;;4.92;82.95
55044;BME280;54902;50.420;18.854;2023-02-12T00:02:13;102623.81;;;4.91;82.96
55044;BME280;54902;50.420;18.854;2023-02-12T00:02:44;102631.88;;;4.92;82.96
55044;BME280;54902;50.420;18.854;2023-02-12T00:03:15;102630.93;;;4.93;82.95
55044;BME280;54902;50.420;18.854;2023-02-12T00:03:46;102634.55;;;4.94;82.96
55044;BME280;54902;50.420;18.854;2023-02-12T00:04:17;102632.75;;;4.93;82.97
55044;BME280;54902;50.420;18.854;2023-02-12T00:04:48;102631.84;;;4.94;82.99
55044;BME280;54902;50.420;18.854;2023-02-12T00:05:19;102632.75;;;4.93;83.00
55044;BME280;54902;50.420;18.854;2023-02-12T00:05:50;102639.04;;;4.93;82.98
55044;BME280;54902;50.420;18.854;2023-02-12T00:06:21;102634.55;;;4.94;82.99
55044;BME280;54902;50.420;18.854;2023-02-12T00:06:52;102637.26;;;4.94;82.97
55044;BME280;54902;50.420;18.854;2023-02-12T00:07:23;102635.46;;;4.93;83.00
55044;BME280;54902;50.420;18.854;2023-02-12T00:07:54;102642.65;;;4.94;83.00
55044;BME280;54902;50.420;18.854;2023-02-12T00:08:25;102637.26;;;4.94;83.01
55044;BME280;54902;50.420;18.854;2023-02-12T00:08:58;102637.26;;;4.94;83.01
55044;BME280;54902;50.420;18.854;2023-02-12T00:09:29;102636.31;;;4.95;83.01
55044;BME280;54902;50.420;18.854;2023-02-12T00:10:00;102645.36;;;4.94;83.00
55044;BME280;54902;50.420;18.854;2023-02-12T00:10:31;102634.55;;;4.94;83.00
55044;BME280;54902;50.420;18.854;2023-02-12T00:11:15;102635.41;;;4.94;83.00
55044;BME280;54902;50.420;18.854;2023-02-12T00:11:46;102629.16;;;4.92;83.00
55044;BME280;54902;50.420;18.854;2023-02-12T00:12:17;102641.73;;;4.95;82.99
55044;BME280;54902;50.420;18.854;2023-02-12T00:12:48;102637.26;;;4.94;83.03
55044;BME280;54902;50.420;18.854;2023-02-12T00:13:19;102636.31;;;4.95;83.05
55044;BME280;54902;50.420;18.854;2023-02-12T00:13:51;102633.62;;;4.95;83.05
55044;BME280;54902;50.420;18.854;2023-02-12T00:14:22;102636.31;;;4.95;83.05
55044;BME280;54902;50.420;18.854;2023-02-12T00:14:53;102632.70;;;4.94;83.04
55044;BME280;54902;50.420;18.854;2023-02-12T00:15:24;102642.60;;;4.95;83.02
55044;BME280;54902;50.420;18.854;2023-02-12T00:15:55;102635.41;;;4.94;83.04
55044;BME280;54902;50.420;18.854;2023-02-12T00:16:27;102636.31;;;4.95;83.04
55044;BME280;54902;50.420;18.854;2023-02-12T00:16:59;102641.73;;;4.95;83.01
55044;BME280;54902;50.420;18.854;2023-02-12T00:17:30;102639.89;;;4.95;83.04
55044;BME280;54902;50.420;18.854;2023-02-12T00:18:01;102647.14;;;4.95;83.08
55044;BME280;54902;50.420;18.854;2023-02-12T00:18:32;102647.14;;;4.95;83.07
55044;BME280;54902;50.420;18.854;2023-02-12T00:19:03;102642.60;;;4.95;83.08
55044;BME280;54902;50.420;18.854;2023-02-12T00:19:34;102638.13;;;4.94;83.11
55044;BME280;54902;50.420;18.854;2023-02-12T00:20:06;102630.91;;;4.95;83.09
55044;BME280;54902;50.420;18.854;2023-02-12T00:20:38;102637.18;;;4.95;83.09
55044;BME280;54902;50.420;18.854;2023-02-12T00:21:09;102644.45;;;4.95;83.05
55044;BME280;54902;50.420;18.854;2023-02-12T00:21:40;102644.45;;;4.95;83.05
55044;BME280;54902;50.420;18.854;2023-02-12T00:22:11;102647.14;;;4.95;83.04
55044;BME280;54902;50.420;18.854;2023-02-12T00:22:42;102641.73;;;4.95;83.04
55044;BME280;54902;50.420;18.854;2023-02-12T00:23:13;102645.31;;;4.95;83.01
55044;BME280;54902;50.420;18.854;2023-02-12T00:23:44;102648.02;;;4.95;83.00
55044;BME280;54902;50.420;18.854;2023-02-12T00:24:15;102651.66;;;4.94;83.00
55044;BME280;54902;50.420;18.854;2023-02-12T00:24:46;102648.90;;;4.96;83.01
55044;BME280;54902;50.420;18.854;2023-02-12T00:25:17;102640.98;;;4.90;83.00
55044;BME280;54902;50.420;18.854;2023-02-12T00:25:48;102648.95;;;4.94;82.99
55044;BME280;54902;50.420;18.854;2023-02-12T00:26:20;102649.85;;;4.95;82.99
55044;BME280;54902;50.420;18.854;2023-02-12T00:26:52;102646.24;;;4.94;82.97
55044;BME280;54902;50.420;18.854;2023-02-12T00:27:23;102648.90;;;4.96;82.98
55044;BME280;54902;50.420;18.854;2023-02-12T00:27:55;102647.14;;;4.95;82.99
55044;BME280;54902;50.420;18.854;2023-02-12T00:28:26;102645.31;;;4.95;83.00
55044;BME280;54902;50.420;18.854;2023-02-12T00:28:57;102653.43;;;4.95;83.00
55044;BME280;54902;50.420;18.854;2023-02-12T00:29:27;102650.73;;;4.95;83.02
55044;BME280;54902;50.420;18.854;2023-02-12T00:29:58;102658.85;;;4.95;83.05
55044;BME280;54902;50.420;18.854;2023-02-12T00:30:29;102652.56;;;4.95;83.04
55044;BME280;54902;50.420;18.854;2023-02-12T00:31:44;102657.98;;;4.95;83.04
55044;BME280;54902;50.420;18.854;2023-02-12T00:32:16;102654.37;;;4.94;83.01
55044;BME280;54902;50.420;18.854;2023-02-12T00:32:49;102664.27;;;4.95;83.00
55044;BME280;54902;50.420;18.854;2023-02-12T00:33:20;102653.43;;;4.95;83.05
55044;BME280;54902;50.420;18.854;2023-02-12T00:33:52;102661.56;;;4.95;83.13
55044;BME280;54902;50.420;18.854;2023-02-12T00:34:23;102651.61;;;4.96;83.10
55044;BME280;54902;50.420;18.854;2023-02-12T00:34:54;102660.63;;;4.96;83.10
55044;BME280;54902;50.420;18.854;2023-02-12T00:35:25;102649.85;;;4.95;83.09
55044;BME280;54902;50.420;18.854;2023-02-12T00:35:56;102657.02;;;4.96;83.21
55044;BME280;54902;50.420;18.854;2023-02-12T00:36:29;102659.73;;;4.96;83.14
55044;BME280;54902;50.420;18.854;2023-02-12T00:37:00;102657.02;;;4.96;83.16
55044;BME280;54902;50.420;18.854;2023-02-12T00:37:31;102653.43;;;4.95;83.15
55044;BME280;54902;50.420;18.854;2023-02-12T00:38:02;102647.14;;;4.95;83.15
55044;BME280;54902;50.420;18.854;2023-02-12T00:38:33;102648.90;;;4.96;83.16
55044;BME280;54902;50.420;18.854;2023-02-12T00:39:04;102657.94;;;4.96;83.25
55044;BME280;54902;50.420;18.854;2023-02-12T00:39:35;102640.06;;;4.91;83.43
55044;BME280;54902;50.420;18.854;2023-02-12T00:40:08;102650.67;;;4.97;83.32
55044;BME280;54902;50.420;18.854;2023-02-12T00:40:39;102650.67;;;4.97;83.41
55044;BME280;54902;50.420;18.854;2023-02-12T00:41:10;102647.14;;;4.95;83.43
55044;BME280;54902;50.420;18.854;2023-02-12T00:41:41;102648.90;;;4.96;83.45
55044;BME280;54902;50.420;18.854;2023-02-12T00:42:11;102652.52;;;4.96;83.47
55044;BME280;54902;50.420;18.854;2023-02-12T00:42:42;102654.31;;;4.96;83.45
55044;BME280;54902;50.420;18.854;2023-02-12T00:43:13;102648.90;;;4.96;83.41
55044;BME280;54902;50.420;18.854;2023-02-12T00:43:44;102657.02;;;4.96;83.39
55044;BME280;54902;50.420;18.854;2023-02-12T00:44:16;102650.73;;;4.95;83.38
55044;BME280;54902;50.420;18.854;2023-02-12T00:44:47;102648.90;;;4.96;83.36
55044;BME280;54902;50.420;18.854;2023-02-12T00:45:18;102657.94;;;4.96;83.34
55044;BME280;54902;50.420;18.854;2023-02-12T00:45:49;102648.90;;;4.96;83.32
55044;BME280;54902;50.420;18.854;2023-02-12T00:46:20;102654.31;;;4.96;83.31
55044;BME280;54902;50.420;18.854;2023-02-12T00:46:51;102657.94;;;4.96;83.29
55044;BME280;54902;50.420;18.854;2023-02-12T00:47:22;102653.43;;;4.95;83.31
55044;BME280;54902;50.420;18.854;2023-02-12T00:47:53;102648.90;;;4.96;83.29
55044;BME280;54902;50.420;18.854;2023-02-12T00:48:24;102657.02;;;4.96;83.29
55044;BME280;54902;50.420;18.854;2023-02-12T00:48:55;102655.27;;;4.95;83.31
55044;BME280;54902;50.420;18.854;2023-02-12T00:49:26;102649.80;;;4.96;83.29
55044;BME280;54902;50.420;18.854;2023-02-12T00:49:57;102648.90;;;4.96;83.27
55044;BME280;54902;50.420;18.854;2023-02-12T00:50:28;102651.61;;;4.96;83.26
55044;BME280;54902;50.420;18.854;2023-02-12T00:50:59;102652.56;;;4.95;83.27
55044;BME280;54902;50.420;18.854;2023-02-12T00:51:30;102653.43;;;4.95;83.28
55044;BME280;54902;50.420;18.854;2023-02-12T00:52:02;102654.31;;;4.96;83.27
55044;BME280;54902;50.420;18.854;2023-02-12T00:52:34;102654.31;;;4.96;83.28
55044;BME280;54902;50.420;18.854;2023-02-12T00:53:04;102659.73;;;4.96;83.26
55044;BME280;54902;50.420;18.854;2023-02-12T00:53:35;102655.23;;;4.96;83.26
55044;BME280;54902;50.420;18.854;2023-02-12T00:54:06;102657.02;;;4.96;83.24
55044;BME280;54902;50.420;18.854;2023-02-12T00:54:40;102657.02;;;4.96;83.25
55044;BME280;54902;50.420;18.854;2023-02-12T00:55:11;102649.80;;;4.96;83.26
55044;BME280;54902;50.420;18.854;2023-02-12T00:55:42;102659.73;;;4.96;83.30
55044;BME280;54902;50.420;18.854;2023-02-12T00:56:13;102656.09;;;4.97;83.29
55044;BME280;54902;50.420;18.854;2023-02-12T00:56:44;102658.80;;;4.97;83.27
55044;BME280;54902;50.420;18.854;2023-02-12T00:57:15;102662.41;;;4.97;83.29
55044;BME280;54902;50.420;18.854;2023-02-12T00:57:46;102667.84;;;4.97;83.29
55044;BME280;54902;50.420;18.854;2023-02-12T00:58:17;102659.70;;;4.97;83.29
55044;BME280;54902;50.420;18.854;2023-02-12T00:58:48;102661.51;;;4.97;83.27
55044;BME280;54902;50.420;18.854;2023-02-12T00:59:19;102668.71;;;4.98;83.26
55044;BME280;54902;50.420;18.854;2023-02-12T00:59:50;102664.22;;;4.97;83.26
55044;BME280;54902;50.420;18.854;2023-02-12T01:00:21;102665.13;;;4.97;83.21
55044;BME280;54902;50.420;18.854;2023-02-12T01:00:53;102672.34;;;4.97;83.23
55044;BME280;54902;50.420;18.854;2023-02-12T01:01:24;102661.51;;;4.97;83.26
55044;BME280;54902;50.420;18.854;2023-02-12T01:01:55;102663.34;;;4.96;83.27
55044;BME280;54902;50.420;18.854;2023-02-12T01:02:26;102662.41;;;4.97;83.27
55044;BME280;54902;50.420;18.854;2023-02-12T01:02:57;102670.55;;;4.97;83.27
55044;BME280;54902;50.420;18.854;2023-02-12T01:03:28;102674.13;;;4.98;83.26
55044;BME280;54902;50.420;18.854;2023-02-12T01:03:59;102674.13;;;4.98;83.25
55044;BME280;54902;50.420;18.854;2023-02-12T01:04:30;102665.13;;;4.97;83.31
55044;BME280;54902;50.420;18.854;2023-02-12T01:05:00;102662.41;;;4.97;83.39
55044;BME280;54902;50.420;18.854;2023-02-12T01:05:32;102663.30;;;4.98;83.41
55044;BME280;54902;50.420;18.854;2023-02-12T01:06:04;102663.30;;;4.98;83.39
55044;BME280;54902;50.420;18.854;2023-02-12T01:06:35;102667.79;;;4.99;83.40
55044;BME280;54902;50.420;18.854;2023-02-12T01:07:06;102670.49;;;4.99;83.44
55044;BME280;54902;50.420;18.854;2023-02-12T01:07:37;102665.08;;;4.99;83.44
55044;BME280;54902;50.420;18.854;2023-02-12T01:08:12;102668.71;;;4.98;83.41
55044;BME280;54902;50.420;18.854;2023-02-12T01:08:44;102668.71;;;4.98;83.39
55044;BME280;54902;50.420;18.854;2023-02-12T01:09:15;102675.00;;;4.98;83.38
55044;BME280;54902;50.420;18.854;2023-02-12T01:09:46;102670.49;;;4.99;83.35
55044;BME280;54902;50.420;18.854;2023-02-12T01:10:17;102669.58;;;4.98;83.33
55044;BME280;54902;50.420;18.854;2023-02-12T01:11:00;102670.49;;;4.99;83.32
55044;BME280;54902;50.420;18.854;2023-02-12T01:11:31;102671.42;;;4.98;83.31
55044;BME280;54902;50.420;18.854;2023-02-12T01:12:02;102674.13;;;4.98;83.31
55044;BME280;54902;50.420;18.854;2023-02-12T01:12:34;102675.95;;;4.97;83.36
55044;BME280;54902;50.420;18.854;2023-02-12T01:13:05;102675.00;;;4.98;83.35
55044;BME280;54902;50.420;18.854;2023-02-12T01:13:36;102674.13;;;4.98;83.33
55044;BME280;54902;50.420;18.854;2023-02-12T01:14:07;102665.08;;;4.99;83.32
55044;BME280;54902;50.420;18.854;2023-02-12T01:14:38;102668.71;;;4.98;83.31
55044;BME280;54902;50.420;18.854;2023-02-12T01:15:09;102668.71;;;4.98;83.32
55044;BME280;54902;50.420;18.854;2023-02-12T01:15:41;102670.49;;;4.99;83.32
55044;BME280;54902;50.420;18.854;2023-02-12T01:16:17;102681.32;;;4.99;83.30
55044;BME280;54902;50.420;18.854;2023-02-12T01:16:48;102675.91;;;4.99;83.28
55044;BME280;54902;50.420;18.854;2023-02-12T01:17:22;102670.49;;;4.99;83.29
55044;BME280;54902;50.420;18.854;2023-02-12T01:17:53;102667.79;;;4.99;83.27
55044;BME280;54902;50.420;18.854;2023-02-12T01:18:24;102678.61;;;4.99;83.28
55044;BME280;54902;50.420;18.854;2023-02-12T01:18:55;102673.20;;;4.99;83.28
55044;BME280;54902;50.420;18.854;2023-02-12T01:19:26;102674.07;;;4.99;83.29
55044;BME280;54902;50.420;18.854;2023-02-12T01:19:57;102678.61;;;4.99;83.27
55044;BME280;54902;50.420;18.854;2023-02-12T01:20:28;102675.91;;;4.99;83.26
55044;BME280;54902;50.420;18.854;2023-02-12T01:21:00;102675.00;;;4.98;83.25
55044;BME280;54902;50.420;18.854;2023-02-12T01:21:33;102675.00;;;4.98;83.26
55044;BME280;54902;50.420;18.854;2023-02-12T01:22:04;102684.91;;;4.99;83.25
55044;BME280;54902;50.420;18.854;2023-02-12T01:22:36;102677.66;;;5.00;83.26
55044;BME280;54902;50.420;18.854;2023-02-12T01:23:07;102683.07;;;5.00;83.26
55044;BME280;54902;50.420;18.854;2023-02-12T01:23:39;102687.63;;;4.99;83.25
55044;BME280;54902;50.420;18.854;2023-02-12T01:24:10;102684.03;;;4.99;83.25
55044;BME280;54902;50.420;18.854;2023-02-12T01:24:41;102684.91;;;4.99;83.25
55044;BME280;54902;50.420;18.854;2023-02-12T01:25:12;102682.20;;;4.99;83.28
55044;BME280;54902;50.420;18.854;2023-02-12T01:25:43;102686.74;;;4.99;83.33
55044;BME280;54902;50.420;18.854;2023-02-12T01:26:16;102685.78;;;5.00;83.35
55044;BME280;54902;50.420;18.854;2023-02-12T01:26:47;102687.63;;;4.99;83.37
55044;BME280;54902;50.420;18.854;2023-02-12T01:27:18;102684.85;;;5.01;83.43
55044;BME280;54902;50.420;18.854;2023-02-12T01:27:52;102695.69;;;5.01;83.45
55044;BME280;54902;50.420;18.854;2023-02-12T01:28:23;102691.20;;;5.00;83.49
55044;BME280;54902;50.420;18.854;2023-02-12T01:28:58;102693.91;;;5.00;83.52
55044;BME280;54902;50.420;18.854;2023-02-12T01:29:30;102695.69;;;5.01;83.53
55044;BME280;54902;50.420;18.854;2023-02-12T01:30:06;102690.27;;;5.01;83.50
55044;BME280;54902;50.420;18.854;2023-02-12T01:30:38;102688.49;;;5.00;83.52
55044;BME280;54902;50.420;18.854;2023-02-12T01:31:14;102695.69;;;5.01;83.52
55044;BME280;54902;50.420;18.854;2023-02-12T01:31:46;102692.10;;;5.00;83.50
55044;BME280;54902;50.420;18.854;2023-02-12T01:32:17;102688.49;;;5.00;83.47
55044;BME280;54902;50.420;18.854;2023-02-12T01:32:48;102693.91;;;5.00;83.47
55044;BME280;54902;50.420;18.854;2023-02-12T01:33:19;102689.39;;;5.00;83.45
55044;BME280;54902;50.420;18.854;2023-02-12T01:33:53;102693.91;;;5.00;83.43
55044;BME280;54902;50.420;18.854;2023-02-12T01:34:24;102698.45;;;4.99;83.41
55044;BME280;54902;50.420;18.854;2023-02-12T01:34:55;102690.32;;;4.99;83.39
55044;BME280;54902;50.420;18.854;2023-02-12T01:35:26;102693.96;;;4.98;83.40
55044;BME280;54902;50.420;18.854;2023-02-12T01:35:57;102691.20;;;5.00;83.40
55044;BME280;54902;50.420;18.854;2023-02-12T01:36:29;102697.57;;;4.99;83.46
55044;BME280;54902;50.420;18.854;2023-02-12T01:37:00;102704.73;;;5.00;83.49
55044;BME280;54902;50.420;18.854;2023-02-12T01:37:34;102702.02;;;5.00;83.49
55044;BME280;54902;50.420;18.854;2023-02-12T01:38:06;102696.62;;;5.00;83.49
55044;BME280;54902;50.420;18.854;2023-02-12T01:38:37;102702.99;;;4.99;83.49
55044;BME280;54902;50.420;18.854;2023-02-12T01:39:09;102708.41;;;4.99;83.50
55044;BME280;54902;50.420;18.854;2023-02-12T01:39:41;102703.87;;;4.99;83.50
55044;BME280;54902;50.420;18.854;2023-02-12T01:40:14;102706.52;;;5.01;83.52
55044;BME280;54902;50.420;18.854;2023-02-12T01:40:45;102704.73;;;5.00;83.50
55044;BME280;54902;50.420;18.854;2023-02-12T01:41:25;102702.99;;;4.99;83.50
55044;BME280;54902;50.420;18.854;2023-02-12T01:41:57;102702.02;;;5.00;83.50
55044;BME280;54902;50.420;18.854;2023-02-12T01:42:28;102703.87;;;4.99;83.58
55044;BME280;54902;50.420;18.854;2023-02-12T01:43:01;102702.02;;;5.00;83.60
55044;BME280;54902;50.420;18.854;2023-02-12T01:43:34;102704.73;;;5.00;83.58
55044;BME280;54902;50.420;18.854;2023-02-12T01:44:15;102689.72;;;4.90;83.56
55044;BME280;54902;50.420;18.854;2023-02-12T01:45:37;102708.41;;;4.99;83.49
55044;BME280;54902;50.420;18.854;2023-02-12T01:46:13;102709.28;;;4.99;83.47
55044;BME280;54902;50.420;18.854;2023-02-12T01:46:46;102705.70;;;4.99;83.49
55044;BME280;54902;50.420;18.854;2023-02-12T01:47:17;102716.53;;;4.99;83.49
55044;BME280;54902;50.420;18.854;2023-02-12T01:47:48;102719.23;;;4.99;83.51
55044;BME280;54902;50.420;18.854;2023-02-12T01:48:22;102710.16;;;5.00;83.55
55044;BME280;54902;50.420;18.854;2023-02-12T01:48:54;102701.16;;;4.99;83.55
55044;BME280;54902;50.420;18.854;2023-02-12T01:50:13;102710.16;;;5.00;83.52
55044;BME280;54902;50.420;18.854;2023-02-12T01:50:47;102706.58;;;4.99;83.54
55044;BME280;54902;50.420;18.854;2023-02-12T01:51:21;102710.16;;;5.00;83.57
55044;BME280;54902;50.420;18.854;2023-02-12T01:52:39;102704.73;;;5.00;83.68
55044;BME280;54902;50.420;18.854;2023-02-12T01:53:13;102711.11;;;4.99;83.69
55044;BME280;54902;50.420;18.854;2023-02-12T01:53:52;102706.63;;;4.98;83.71
55044;BME280;54902;50.420;18.854;2023-02-12T01:54:25;102710.16;;;5.00;83.73
55044;BME280;54902;50.420;18.854;2023-02-12T01:55:01;102714.70;;;4.99;83.75
55044;BME280;54902;50.420;18.854;2023-02-12T01:55:33;102713.82;;;4.99;83.74
55044;BME280;54902;50.420;18.854;2023-02-12T01:56:05;102726.41;;;5.00;83.81
55044;BME280;54902;50.420;18.854;2023-02-12T01:56:39;102722.83;;;4.99;83.85
55044;BME280;54902;50.420;18.854;2023-02-12T01:57:13;102727.37;;;4.99;83.86
55044;BME280;54902;50.420;18.854;2023-02-12T01:57:47;102715.58;;;5.00;83.86
55044;BME280;54902;50.420;18.854;2023-02-12T01:58:19;102731.82;;;5.00;83.85
55044;BME280;54902;50.420;18.854;2023-02-12T01:58:51;102726.41;;;5.00;83.94
55044;BME280;54902;50.420;18.854;2023-02-12T01:59:28;102709.23;;;5.01;84.04
55044;BME280;54902;50.420;18.854;2023-02-12T02:00:01;102714.65;;;5.01;84.07
55044;BME280;54902;50.420;18.854;2023-02-12T02:00:34;102722.78;;;5.01;84.10
55044;BME280;54902;50.420;18.854;2023-02-12T02:01:07;102723.68;;;5.01;84.09
55044;BME280;54902;50.420;18.854;2023-02-12T02:01:39;102723.68;;;5.01;84.17
55044;BME280;54902;50.420;18.854;2023-02-12T02:02:11;102730.02;;;5.00;84.25
55044;BME280;54902;50.420;18.854;2023-02-12T02:02:45;102726.34;;;5.03;84.38
55044;BME280;54902;50.420;18.854;2023-02-12T02:03:18;102720.92;;;5.03;84.41
55044;BME280;54902;50.420;18.854;2023-02-12T02:03:51;102729.92;;;5.03;84.48
55044;BME280;54902;50.420;18.854;2023-02-12T02:04:28;102722.72;;;5.02;84.56
55044;BME280;54902;50.420;18.854;2023-02-12T02:05:01;102738.93;;;5.04;84.60
55044;BME280;54902;50.420;18.854;2023-02-12T02:05:46;102725.38;;;5.04;84.56
55044;BME280;54902;50.420;18.854;2023-02-12T02:06:27;102722.66;;;5.04;84.48
55044;BME280;54902;50.420;18.854;2023-02-12T02:07:02;102722.66;;;5.04;84.62
55044;BME280;54902;50.420;18.854;2023-02-12T02:07:34;102723.57;;;5.04;84.70
55044;BME280;54902;50.420;18.854;2023-02-12T02:08:05;102736.20;;;5.05;84.75
55044;BME280;54902;50.420;18.854;2023-02-12T02:08:37;102725.35;;;5.05;84.82
55044;BME280;54902;50.420;18.854;2023-02-12T02:09:09;102730.77;;;5.05;84.83
55044;BME280;54902;50.420;18.854;2023-02-12T02:09:41;102654.32;;;4.67;84.82
55044;BME280;54902;50.420;18.854;2023-02-12T02:10:13;102730.73;;;5.07;84.90
55044;BME280;54902;50.420;18.854;2023-02-12T02:10:43;102727.11;;;5.06;84.92
55044;BME280;54902;50.420;18.854;2023-02-12T02:11:14;102723.52;;;5.06;84.91
55044;BME280;54902;50.420;18.854;2023-02-12T02:11:57;102723.48;;;5.07;84.97
55044;BME280;54902;50.420;18.854;2023-02-12T02:12:40;102722.59;;;5.07;84.93
55044;BME280;54902;50.420;18.854;2023-02-12T02:13:24;102721.70;;;5.06;84.90
55044;BME280;54902;50.420;18.854;2023-02-12T02:14:07;102724.39;;;5.08;84.88
55044;BME280;54902;50.420;18.854;2023-02-12T02:14:54;102724.39;;;5.08;84.86
55044;BME280;54902;50.420;18.854;2023-02-12T02:15:28;102728.89;;;5.07;84.81
55044;BME280;54902;50.420;18.854;2023-02-12T02:16:06;102727.09;;;5.08;84.85
55044;BME280;54902;50.420;18.854;2023-02-12T02:16:42;102729.80;;;5.08;84.80
55044;BME280;54902;50.420;18.854;2023-02-12T02:17:34;102725.26;;;5.08;84.80
55044;BME280;54902;50.420;18.854;2023-02-12T02:18:13;102723.48;;;5.07;84.90
55044;BME280;54902;50.420;18.854;2023-02-12T02:18:55;102722.55;;;5.08;84.94
55044;BME280;54902;50.420;18.854;2023-02-12T02:23:58;102727.97;;;5.08;85.06
55044;BME280;54902;50.420;18.854;2023-02-12T02:27:32;102731.55;;;5.09;85.03
55044;BME280;54902;50.420;18.854;2023-02-12T02:30:30;102732.41;;;5.11;85.40
55044;BME280;54902;50.420;18.854;2023-02-12T02:31:53;102724.28;;;5.11;85.39
55044;BME280;54902;50.420;18.854;2023-02-12T02:32:31;102732.41;;;5.11;85.45
55044;BME280;54902;50.420;18.854;2023-02-12T02:33:54;102735.98;;;5.11;85.55
55044;BME280;54902;50.420;18.854;2023-02-12T02:34:37;102744.12;;;5.11;85.58
55044;BME280;54902;50.420;18.854;2023-02-12T02:35:14;102732.41;;;5.11;85.49
55044;BME280;54902;50.420;18.854;2023-02-12T02:36:43;102747.73;;;5.12;85.58
55044;BME280;54902;50.420;18.854;2023-02-12T02:37:22;102745.95;;;5.11;85.52
55044;BME280;54902;50.420;18.854;2023-02-12T02:38:51;102747.80;;;5.09;85.55
55044;BME280;54902;50.420;18.854;2023-02-12T02:40:11;102760.37;;;5.11;85.41
55044;BME280;54902;50.420;18.854;2023-02-12T02:40:50;102752.30;;;5.10;85.38
55044;BME280;54902;50.420;18.854;2023-02-12T02:41:32;102752.30;;;5.10;85.37
55044;BME280;54902;50.420;18.854;2023-02-12T02:42:13;102767.63;;;5.11;85.42
55044;BME280;54902;50.420;18.854;2023-02-12T02:43:32;102767.63;;;5.11;85.43
55044;BME280;54902;50.420;18.854;2023-02-12T02:44:13;102764.91;;;5.11;85.54
55044;BME280;54902;50.420;18.854;2023-02-12T02:44:50;102774.82;;;5.12;85.60
55044;BME280;54902;50.420;18.854;2023-02-12T02:46:12;102766.69;;;5.12;85.63
55044;BME280;54902;50.420;18.854;2023-02-12T02:46:47;102773.03;;;5.11;85.66
55044;BME280;54902;50.420;18.854;2023-02-12T02:48:09;102770.33;;;5.11;85.63
55044;BME280;54902;50.420;18.854;2023-02-12T02:48:48;102772.11;;;5.12;85.61
55044;BME280;54902;50.420;18.854;2023-02-12T02:49:26;102785.66;;;5.12;85.59
55044;BME280;54902;50.420;18.854;2023-02-12T02:50:03;102773.03;;;5.11;85.56
55044;BME280;54902;50.420;18.854;2023-02-12T02:50:41;102771.20;;;5.11;85.51
55044;BME280;54902;50.420;18.854;2023-02-12T02:51:20;102766.71;;;5.10;85.50
55044;BME280;54902;50.420;18.854;2023-02-12T02:52:02;102769.42;;;5.10;85.45
55044;BME280;54902;50.420;18.854;2023-02-12T02:53:24;102767.63;;;5.11;85.51
55044;BME280;54902;50.420;18.854;2023-02-12T02:54:45;102767.63;;;5.11;85.46
55044;BME280;54902;50.420;18.854;2023-02-12T02:55:20;102764.00;;;5.10;85.44
55044;BME280;54902;50.420;18.854;2023-02-12T02:55:55;102764.91;;;5.11;85.43
55044;BME280;54902;50.420;18.854;2023-02-12T02:56:28;102777.55;;;5.10;85.42
55044;BME280;54902;50.420;18.854;2023-02-12T02:57:09;102771.25;;;5.10;85.41
55044;BME280;54902;50.420;18.854;2023-02-12T02:57:47;102765.84;;;5.10;85.38
55044;BME280;54902;50.420;18.854;2023-02-12T02:58:26;102770.38;;;5.09;85.34
55044;BME280;54902;50.420;18.854;2023-02-12T02:59:03;102776.67;;;5.10;85.34
55044;BME280;54902;50.420;18.854;2023-02-12T02:59:40;102776.67;;;5.10;85.31
55044;BME280;54902;50.420;18.854;2023-02-12T03:00:21;102793.84;;;5.09;85.31
55044;BME280;54902;50.420;18.854;2023-02-12T03:00:59;102787.55;;;5.08;85.29
55044;BME280;54902;50.420;18.854;2023-02-12T03:02:20;102787.55;;;5.08;85.28
55044;BME280;54902;50.420;18.854;2023-02-12T03:02:59;102788.43;;;5.09;85.31
55044;BME280;54902;50.420;18.854;2023-02-12T03:03:35;102789.39;;;5.08;85.29
55044;BME280;54902;50.420;18.854;2023-02-12T03:04:13;102786.68;;;5.08;85.28
55044;BME280;54902;50.420;18.854;2023-02-12T03:04:57;102782.14;;;5.08;85.27
55044;BME280;54902;50.420;18.854;2023-02-12T03:05:36;102784.84;;;5.08;85.29
55044;BME280;54902;50.420;18.854;2023-02-12T03:06:19;102788.43;;;5.09;85.36
55044;BME280;54902;50.420;18.854;2023-02-12T03:07:00;102791.14;;;5.09;85.34
55044;BME280;54902;50.420;18.854;2023-02-12T03:07:43;102786.68;;;5.08;85.32
55044;BME280;54902;50.420;18.854;2023-02-12T03:08:23;102792.10;;;5.08;85.30
55044;BME280;54902;50.420;18.854;2023-02-12T03:09:00;102790.26;;;5.08;85.30
55044;BME280;54902;50.420;18.854;2023-02-12T03:09:42;102793.90;;;5.07;85.28
55044;BME280;54902;50.420;18.854;2023-02-12T03:10:20;102799.31;;;5.07;85.25
55044;BME280;54902;50.420;18.854;2023-02-12T03:10:57;102800.24;;;5.06;85.21
55044;BME280;54902;50.420;18.854;2023-02-12T03:11:32;102803.86;;;5.07;85.19
55044;BME280;54902;50.420;18.854;2023-02-12T03:12:13;102808.35;;;5.08;85.19
55044;BME280;54902;50.420;18.854;2023-02-12T03:13:35;102802.95;;;5.06;85.18
55044;BME280;54902;50.420;18.854;2023-02-12T03:13:41;102802.08;;;5.06;85.18
55044;BME280;54902;50.420;18.854;2023-02-12T03:14:22;102803.86;;;5.07;85.19
55044;BME280;54902;50.420;18.854;2023-02-12T03:15:47;102797.53;;;5.06;85.17
55044;BME280;54902;50.420;18.854;2023-02-12T03:16:26;102802.08;;;5.06;85.18
55044;BME280;54902;50.420;18.854;2023-02-12T03:17:03;102796.66;;;5.06;85.19
55044;BME280;54902;50.420;18.854;2023-02-12T03:17:39;102811.07;;;5.06;85.22